CheckWX is a tool to help pilots better visualize weather data.  It is not intended as a substitute for an official pre-flight weather briefing.

05:58:26 UTC

KBAD TAF
Barksdale AFB Airport
Bossier City, Louisiana, USA
TAF AMD KBAD 080508Z 0805/0908 12006KT 1200 BR OVC002 QNH3019INS TEMPO 0805/0813 0800 FG VV002 BECMG 0813/0814 14006KT 9999 NSW OVC007 QNH3012INS BECMG 0815/0816 16010KT 9999 SCT250 QNH2988INS BECMG 0905/0906 18010KT 9999 BKN015 QNH2984INS TX19/0821Z TN07/0813Z

Dec-8@
05:00 UTC

Dec-8 @ 05:00 UTC

Dec-8@
13:00 UTC

Dec-8 @ 13:00 UTC

TAF AMD KBAD 080508Z 0805/0908 12006KT 1200 BR OVC002 QNH3019INS
Wind
  • 120° at 6 KTS
Conditions
Mist
Cloud Levels
  • Overcast at 200' AGL

Dec-8@
05:00 UTC

Dec-8 @ 05:00 UTC

Dec-8@
13:00 UTC

Dec-8 @ 13:00 UTC

TEMPO 0805/0813 0800 FG VV002

Temporary

Temporary Changes expected for less than half the time period

Conditions
Fog
Cloud Levels
  • Vertical visibility at 200' AGL

Dec-8@
13:00 UTC

Dec-8 @ 13:00 UTC

Dec-8@
15:00 UTC

Dec-8 @ 15:00 UTC

BECMG 0813/0814 14006KT 9999 NSW OVC007 QNH3012INS

Becoming

Becoming Conditions expected by Sun, Dec 8, 2019 @ 14:00 UTC

Wind
  • 140° at 6 KTS
Conditions
No significant weather
Cloud Levels
  • Overcast at 700' AGL

Dec-8@
15:00 UTC

Dec-8 @ 15:00 UTC

Dec-9@
05:00 UTC

Dec-9 @ 05:00 UTC

BECMG 0815/0816 16010KT 9999 SCT250 QNH2988INS

Becoming

Becoming Conditions expected by Sun, Dec 8, 2019 @ 16:00 UTC

Wind
  • 160° at 10 KTS
Conditions
No significant weather
Cloud Levels
  • Scattered at 25,000' AGL

Dec-9@
05:00 UTC

Dec-9 @ 05:00 UTC

Dec-9@
08:00 UTC

Dec-9 @ 08:00 UTC

BECMG 0905/0906 18010KT 9999 BKN015 QNH2984INS TX19/0821Z TN07/0813Z

Becoming

Becoming Conditions expected by Mon, Dec 9, 2019 @ 06:00 UTC

Wind
  • 180° at 10 KTS
Conditions
No significant weather
Cloud Levels
  • Broken at 1,500' AGL